sensor_id;sensor_type;location;lat;lon;timestamp;pressure;altitude;pressure_sealevel;temperature;humidity
8366;BME280;4220;42.502;24.188;2022-10-16T00:00:38;95932.72;;;11.50;100.00
8366;BME280;4220;42.502;24.188;2022-10-16T00:03:07;95919.03;;;11.40;100.00
8366;BME280;4220;42.502;24.188;2022-10-16T00:05:38;95933.94;;;11.47;100.00
8366;BME280;4220;42.502;24.188;2022-10-16T00:08:05;95929.22;;;11.49;100.00
8366;BME280;4220;42.502;24.188;2022-10-16T00:10:33;95896.34;;;11.24;100.00
8366;BME280;4220;42.502;24.188;2022-10-16T00:12:59;95930.88;;;11.44;100.00
8366;BME280;4220;42.502;24.188;2022-10-16T00:15:26;95931.69;;;11.38;100.00
8366;BME280;4220;42.502;24.188;2022-10-16T00:17:55;95928.03;;;11.32;100.00
8366;BME280;4220;42.502;24.188;2022-10-16T00:20:21;95932.09;;;11.28;100.00
8366;BME280;4220;42.502;24.188;2022-10-16T00:22:48;95928.03;;;11.19;100.00
8366;BME280;4220;42.502;24.188;2022-10-16T00:25:15;95930.47;;;10.88;100.00
8366;BME280;4220;42.502;24.188;2022-10-16T00:27:42;95935.94;;;10.86;100.00
8366;BME280;4220;42.502;24.188;2022-10-16T00:30:09;95938.59;;;10.86;100.00
8366;BME280;4220;42.502;24.188;2022-10-16T00:32:36;95951.47;;;10.83;100.00
8366;BME280;4220;42.502;24.188;2022-10-16T00:35:05;95955.75;;;10.77;100.00
8366;BME280;4220;42.502;24.188;2022-10-16T00:37:32;95950.13;;;10.39;100.00
8366;BME280;4220;42.502;24.188;2022-10-16T00:39:59;95955.59;;;10.25;100.00
8366;BME280;4220;42.502;24.188;2022-10-16T00:42:26;95954.41;;;10.34;100.00
8366;BME280;4220;42.502;24.188;2022-10-16T00:44:55;95937.25;;;10.30;100.00
8366;BME280;4220;42.502;24.188;2022-10-16T00:47:25;95956.47;;;10.45;100.00
8366;BME280;4220;42.502;24.188;2022-10-16T00:49:57;95966.75;;;10.14;100.00
8366;BME280;4220;42.502;24.188;2022-10-16T00:52:26;95969.28;;;9.94;100.00
8366;BME280;4220;42.502;24.188;2022-10-16T00:54:54;95982.66;;;9.79;100.00
8366;BME280;4220;42.502;24.188;2022-10-16T00:57:21;95982.41;;;9.74;100.00
8366;BME280;4220;42.502;24.188;2022-10-16T00:59:48;95979.38;;;9.77;100.00
8366;BME280;4220;42.502;24.188;2022-10-16T01:02:16;95975.34;;;9.88;100.00
8366;BME280;4220;42.502;24.188;2022-10-16T01:04:46;95967.47;;;9.95;100.00
8366;BME280;4220;42.502;24.188;2022-10-16T01:07:18;95969.94;;;10.03;100.00
8366;BME280;4220;42.502;24.188;2022-10-16T01:09:59;95969.38;;;10.07;100.00
8366;BME280;4220;42.502;24.188;2022-10-16T01:12:36;95972.19;;;10.06;100.00
8366;BME280;4220;42.502;24.188;2022-10-16T01:15:10;95986.97;;;9.87;100.00
8366;BME280;4220;42.502;24.188;2022-10-16T01:17:42;95986.69;;;9.75;100.00
8366;BME280;4220;42.502;24.188;2022-10-16T01:20:16;95944.22;;;9.28;100.00
8366;BME280;4220;42.502;24.188;2022-10-16T01:23:02;95981.34;;;9.13;100.00
8366;BME280;4220;42.502;24.188;2022-10-16T01:25:39;95973.00;;;9.16;100.00
8366;BME280;4220;42.502;24.188;2022-10-16T01:28:15;95984.28;;;9.25;100.00
8366;BME280;4220;42.502;24.188;2022-10-16T01:30:45;95979.75;;;9.19;100.00
8366;BME280;4220;42.502;24.188;2022-10-16T01:33:17;95983.28;;;9.26;100.00
8366;BME280;4220;42.502;24.188;2022-10-16T01:35:47;95979.44;;;9.29;100.00
8366;BME280;4220;42.502;24.188;2022-10-16T01:38:21;95980.19;;;9.23;100.00
8366;BME280;4220;42.502;24.188;2022-10-16T01:40:53;95979.66;;;9.34;100.00
8366;BME280;4220;42.502;24.188;2022-10-16T01:43:28;95975.44;;;9.39;100.00
8366;BME280;4220;42.502;24.188;2022-10-16T01:45:55;95980.31;;;9.36;100.00
8366;BME280;4220;42.502;24.188;2022-10-16T01:48:23;95932.44;;;9.09;100.00
8366;BME280;4220;42.502;24.188;2022-10-16T01:50:55;95980.16;;;9.44;100.00
8366;BME280;4220;42.502;24.188;2022-10-16T01:53:24;95980.97;;;9.44;100.00
8366;BME280;4220;42.502;24.188;2022-10-16T01:55:52;95990.94;;;9.42;100.00
8366;BME280;4220;42.502;24.188;2022-10-16T01:58:24;95975.81;;;9.36;100.00
8366;BME280;4220;42.502;24.188;2022-10-16T02:00:52;95980.41;;;9.21;100.00
8366;BME280;4220;42.502;24.188;2022-10-16T02:03:21;95974.22;;;8.93;100.00
8366;BME280;4220;42.502;24.188;2022-10-16T02:05:51;95979.78;;;8.77;100.00
8366;BME280;4220;42.502;24.188;2022-10-16T02:08:19;95984.94;;;8.64;100.00
8366;BME280;4220;42.502;24.188;2022-10-16T02:10:47;95983.75;;;8.66;100.00
8366;BME280;4220;42.502;24.188;2022-10-16T02:13:17;95978.69;;;8.50;100.00
8366;BME280;4220;42.502;24.188;2022-10-16T02:15:47;95979.19;;;8.60;100.00
8366;BME280;4220;42.502;24.188;2022-10-16T02:18:14;95988.97;;;8.60;100.00
8366;BME280;4220;42.502;24.188;2022-10-16T02:20:48;95994.13;;;8.68;100.00
8366;BME280;4220;42.502;24.188;2022-10-16T02:23:21;96002.19;;;8.81;100.00
8366;BME280;4220;42.502;24.188;2022-10-16T02:25:50;95995.50;;;8.85;100.00
8366;BME280;4220;42.502;24.188;2022-10-16T02:28:22;95992.44;;;8.81;100.00
8366;BME280;4220;42.502;24.188;2022-10-16T02:30:56;96007.28;;;8.82;100.00
8366;BME280;4220;42.502;24.188;2022-10-16T02:33:25;95998.16;;;8.85;100.00
8366;BME280;4220;42.502;24.188;2022-10-16T02:35:53;96001.47;;;8.87;100.00
8366;BME280;4220;42.502;24.188;2022-10-16T02:38:21;96002.50;;;8.92;100.00
8366;BME280;4220;42.502;24.188;2022-10-16T02:40:49;96006.81;;;8.93;100.00
8366;BME280;4220;42.502;24.188;2022-10-16T02:43:16;96003.91;;;8.88;100.00
8366;BME280;4220;42.502;24.188;2022-10-16T02:45:43;96001.56;;;8.79;100.00
8366;BME280;4220;42.502;24.188;2022-10-16T02:48:11;96004.78;;;8.74;100.00
8366;BME280;4220;42.502;24.188;2022-10-16T02:50:38;96011.38;;;8.64;100.00
8366;BME280;4220;42.502;24.188;2022-10-16T02:53:05;96012.41;;;8.48;100.00
8366;BME280;4220;42.502;24.188;2022-10-16T02:55:32;96016.25;;;8.31;100.00
8366;BME280;4220;42.502;24.188;2022-10-16T02:57:59;96009.41;;;8.22;100.00
8366;BME280;4220;42.502;24.188;2022-10-16T03:00:25;95987.59;;;8.13;100.00
8366;BME280;4220;42.502;24.188;2022-10-16T03:02:52;96007.91;;;7.98;100.00
8366;BME280;4220;42.502;24.188;2022-10-16T03:05:21;96010.63;;;7.75;100.00
8366;BME280;4220;42.502;24.188;2022-10-16T03:07:47;95995.06;;;7.66;100.00
8366;BME280;4220;42.502;24.188;2022-10-16T03:10:14;96018.63;;;7.82;100.00
8366;BME280;4220;42.502;24.188;2022-10-16T03:12:41;96005.25;;;7.98;100.00
8366;BME280;4220;42.502;24.188;2022-10-16T03:15:09;96002.06;;;7.88;100.00
8366;BME280;4220;42.502;24.188;2022-10-16T03:17:36;96020.63;;;7.95;100.00
8366;BME280;4220;42.502;24.188;2022-10-16T03:20:04;96006.88;;;7.99;100.00
8366;BME280;4220;42.502;24.188;2022-10-16T03:22:32;96012.78;;;8.01;100.00
8366;BME280;4220;42.502;24.188;2022-10-16T03:24:59;96010.97;;;8.02;100.00
8366;BME280;4220;42.502;24.188;2022-10-16T03:27:25;96000.78;;;7.99;100.00
8366;BME280;4220;42.502;24.188;2022-10-16T03:29:52;96014.16;;;7.97;100.00
8366;BME280;4220;42.502;24.188;2022-10-16T03:32:19;96013.97;;;7.99;100.00
8366;BME280;4220;42.502;24.188;2022-10-16T03:34:46;96019.66;;;7.96;100.00
8366;BME280;4220;42.502;24.188;2022-10-16T03:37:13;96019.09;;;7.71;100.00
8366;BME280;4220;42.502;24.188;2022-10-16T03:39:41;96022.66;;;7.78;100.00
8366;BME280;4220;42.502;24.188;2022-10-16T03:42:08;96024.53;;;7.84;100.00
8366;BME280;4220;42.502;24.188;2022-10-16T03:44:35;96018.56;;;7.90;100.00
8366;BME280;4220;42.502;24.188;2022-10-16T03:47:02;96019.00;;;7.79;100.00
8366;BME280;4220;42.502;24.188;2022-10-16T03:49:29;96002.63;;;7.69;100.00
8366;BME280;4220;42.502;24.188;2022-10-16T03:51:55;96009.34;;;7.71;100.00
8366;BME280;4220;42.502;24.188;2022-10-16T03:54:22;95972.72;;;7.39;100.00
8366;BME280;4220;42.502;24.188;2022-10-16T03:56:50;95965.44;;;7.41;100.00
8366;BME280;4220;42.502;24.188;2022-10-16T03:59:17;96016.34;;;7.79;100.00
8366;BME280;4220;42.502;24.188;2022-10-16T04:01:44;96020.00;;;7.78;100.00
8366;BME280;4220;42.502;24.188;2022-10-16T04:04:11;96011.97;;;7.57;100.00
8366;BME280;4220;42.502;24.188;2022-10-16T04:06:37;96020.81;;;7.64;100.00
8366;BME280;4220;42.502;24.188;2022-10-16T04:09:04;96027.66;;;7.73;100.00
8366;BME280;4220;42.502;24.188;2022-10-16T04:11:31;96031.38;;;7.64;100.00
8366;BME280;4220;42.502;24.188;2022-10-16T04:14:00;96027.00;;;7.56;100.00
8366;BME280;4220;42.502;24.188;2022-10-16T04:16:26;96034.16;;;7.48;100.00
8366;BME280;4220;42.502;24.188;2022-10-16T04:18:53;96037.81;;;7.47;100.00
8366;BME280;4220;42.502;24.188;2022-10-16T04:21:20;96038.88;;;7.15;100.00
8366;BME280;4220;42.502;24.188;2022-10-16T04:23:47;96031.44;;;7.18;100.00
8366;BME280;4220;42.502;24.188;2022-10-16T04:26:14;96031.25;;;7.20;100.00
8366;BME280;4220;42.502;24.188;2022-10-16T04:28:41;96030.19;;;7.14;100.00
8366;BME280;4220;42.502;24.188;2022-10-16T04:31:09;96000.00;;;6.94;100.00
8366;BME280;4220;42.502;24.188;2022-10-16T04:33:36;96039.38;;;7.18;100.00
8366;BME280;4220;42.502;24.188;2022-10-16T04:36:04;96038.19;;;7.21;100.00
8366;BME280;4220;42.502;24.188;2022-10-16T04:38:31;96035.25;;;7.16;100.00
8366;BME280;4220;42.502;24.188;2022-10-16T04:40:58;96041.72;;;7.13;100.00
8366;BME280;4220;42.502;24.188;2022-10-16T04:43:25;96007.91;;;6.94;100.00
8366;BME280;4220;42.502;24.188;2022-10-16T04:45:52;96044.53;;;6.89;100.00
8366;BME280;4220;42.502;24.188;2022-10-16T04:48:21;96046.19;;;6.90;100.00
8366;BME280;4220;42.502;24.188;2022-10-16T04:50:48;96051.91;;;6.94;100.00
8366;BME280;4220;42.502;24.188;2022-10-16T04:53:15;96042.13;;;7.02;100.00
8366;BME280;4220;42.502;24.188;2022-10-16T04:55:42;96050.06;;;7.02;100.00
8366;BME280;4220;42.502;24.188;2022-10-16T04:58:09;96055.78;;;7.06;100.00
8366;BME280;4220;42.502;24.188;2022-10-16T05:00:36;96052.75;;;7.17;100.00
8366;BME280;4220;42.502;24.188;2022-10-16T05:03:03;96050.63;;;7.12;100.00
8366;BME280;4220;42.502;24.188;2022-10-16T05:05:34;96054.53;;;6.94;100.00
8366;BME280;4220;42.502;24.188;2022-10-16T05:08:02;96060.69;;;6.86;100.00
8366;BME280;4220;42.502;24.188;2022-10-16T05:10:29;96067.72;;;6.94;100.00
8366;BME280;4220;42.502;24.188;2022-10-16T05:12:56;96064.03;;;7.03;100.00
8366;BME280;4220;42.502;24.188;2022-10-16T05:15:22;96076.53;;;7.09;100.00
8366;BME280;4220;42.502;24.188;2022-10-16T05:17:52;96074.38;;;7.12;100.00
8366;BME280;4220;42.502;24.188;2022-10-16T05:20:19;96073.66;;;7.18;100.00
8366;BME280;4220;42.502;24.188;2022-10-16T05:22:48;96073.72;;;7.10;100.00
8366;BME280;4220;42.502;24.188;2022-10-16T05:25:15;96074.44;;;7.27;100.00
8366;BME280;4220;42.502;24.188;2022-10-16T05:27:42;96089.78;;;7.46;100.00
8366;BME280;4220;42.502;24.188;2022-10-16T05:30:09;96072.84;;;7.55;100.00
8366;BME280;4220;42.502;24.188;2022-10-16T05:32:36;96091.38;;;7.70;100.00
8366;BME280;4220;42.502;24.188;2022-10-16T05:35:03;96091.47;;;7.76;100.00
8366;BME280;4220;42.502;24.188;2022-10-16T05:37:30;96097.31;;;7.86;100.00
8366;BME280;4220;42.502;24.188;2022-10-16T05:39:59;96104.34;;;7.94;100.00
8366;BME280;4220;42.502;24.188;2022-10-16T05:42:25;96101.06;;;8.07;100.00
8366;BME280;4220;42.502;24.188;2022-10-16T05:44:52;96105.09;;;8.17;100.00
8366;BME280;4220;42.502;24.188;2022-10-16T05:47:20;96110.63;;;8.30;100.00
8366;BME280;4220;42.502;24.188;2022-10-16T05:49:47;96106.88;;;8.39;100.00
8366;BME280;4220;42.502;24.188;2022-10-16T05:52:14;96103.31;;;8.47;100.00
8366;BME280;4220;42.502;24.188;2022-10-16T05:54:40;96096.47;;;8.52;100.00
8366;BME280;4220;42.502;24.188;2022-10-16T05:57:09;96112.13;;;8.69;100.00
8366;BME280;4220;42.502;24.188;2022-10-16T05:59:35;96107.69;;;8.54;100.00
8366;BME280;4220;42.502;24.188;2022-10-16T06:02:02;96111.84;;;8.64;100.00
8366;BME280;4220;42.502;24.188;2022-10-16T06:04:29;96109.13;;;8.72;100.00
8366;BME280;4220;42.502;24.188;2022-10-16T06:06:58;96103.19;;;8.70;100.00
8366;BME280;4220;42.502;24.188;2022-10-16T06:09:25;96119.22;;;8.83;100.00
8366;BME280;4220;42.502;24.188;2022-10-16T06:11:52;96118.91;;;8.92;100.00
8366;BME280;4220;42.502;24.188;2022-10-16T06:14:20;96125.19;;;9.06;100.00
8366;BME280;4220;42.502;24.188;2022-10-16T06:16:47;96126.28;;;8.97;100.00
8366;BME280;4220;42.502;24.188;2022-10-16T06:19:14;96118.53;;;8.95;100.00
8366;BME280;4220;42.502;24.188;2022-10-16T06:21:41;96123.00;;;8.95;100.00
8366;BME280;4220;42.502;24.188;2022-10-16T06:24:09;96126.09;;;9.13;100.00
8366;BME280;4220;42.502;24.188;2022-10-16T06:26:37;96128.09;;;9.32;100.00
8366;BME280;4220;42.502;24.188;2022-10-16T06:29:03;96133.88;;;9.36;100.00
8366;BME280;4220;42.502;24.188;2022-10-16T06:31:32;96129.25;;;9.44;100.00
8366;BME280;4220;42.502;24.188;2022-10-16T06:33:59;96134.84;;;9.35;100.00
8366;BME280;4220;42.502;24.188;2022-10-16T06:36:27;96136.50;;;9.57;100.00
8366;BME280;4220;42.502;24.188;2022-10-16T06:38:54;96142.22;;;9.81;100.00
8366;BME280;4220;42.502;24.188;2022-10-16T06:41:22;96149.75;;;10.06;100.00
8366;BME280;4220;42.502;24.188;2022-10-16T06:43:49;96139.53;;;10.24;100.00
8366;BME280;4220;42.502;24.188;2022-10-16T06:46:19;96156.22;;;10.45;100.00
8366;BME280;4220;42.502;24.188;2022-10-16T06:48:48;96146.03;;;10.49;100.00
8366;BME280;4220;42.502;24.188;2022-10-16T06:51:16;96155.13;;;10.68;100.00
8366;BME280;4220;42.502;24.188;2022-10-16T06:53:44;96149.44;;;10.77;100.00
8366;BME280;4220;42.502;24.188;2022-10-16T06:56:13;96157.06;;;10.93;100.00
8366;BME280;4220;42.502;24.188;2022-10-16T06:58:41;96158.94;;;10.99;100.00
8366;BME280;4220;42.502;24.188;2022-10-16T07:01:10;96162.28;;;11.14;100.00
8366;BME280;4220;42.502;24.188;2022-10-16T07:03:37;96168.44;;;11.22;100.00
8366;BME280;4220;42.502;24.188;2022-10-16T07:06:07;96172.75;;;11.29;100.00
8366;BME280;4220;42.502;24.188;2022-10-16T07:08:35;96165.72;;;11.08;100.00
8366;BME280;4220;42.502;24.188;2022-10-16T07:11:04;96175.56;;;11.14;100.00
8366;BME280;4220;42.502;24.188;2022-10-16T07:13:33;96165.19;;;11.33;100.00
8366;BME280;4220;42.502;24.188;2022-10-16T07:16:04;96174.88;;;11.60;100.00
8366;BME280;4220;42.502;24.188;2022-10-16T07:18:31;96172.09;;;11.81;100.00
8366;BME280;4220;42.502;24.188;2022-10-16T07:21:03;96167.19;;;11.98;100.00
8366;BME280;4220;42.502;24.188;2022-10-16T07:23:32;96171.09;;;12.15;100.00
8366;BME280;4220;42.502;24.188;2022-10-16T07:25:59;96166.38;;;12.36;100.00
8366;BME280;4220;42.502;24.188;2022-10-16T07:28:26;96163.28;;;12.46;100.00
8366;BME280;4220;42.502;24.188;2022-10-16T07:30:53;96172.47;;;12.70;100.00
8366;BME280;4220;42.502;24.188;2022-10-16T07:33:19;96163.84;;;12.81;100.00
8366;BME280;4220;42.502;24.188;2022-10-16T07:35:50;96136.00;;;12.77;99.66
8366;BME280;4220;42.502;24.188;2022-10-16T07:38:17;96175.72;;;12.85;100.00
8366;BME280;4220;42.502;24.188;2022-10-16T07:40:45;96176.72;;;12.84;100.00
8366;BME280;4220;42.502;24.188;2022-10-16T07:43:13;96143.81;;;12.72;100.00
8366;BME280;4220;42.502;24.188;2022-10-16T07:45:46;96182.22;;;13.02;99.93
8366;BME280;4220;42.502;24.188;2022-10-16T07:48:14;96188.38;;;13.09;99.51
8366;BME280;4220;42.502;24.188;2022-10-16T07:50:41;96173.63;;;13.06;99.18
8366;BME280;4220;42.502;24.188;2022-10-16T07:53:08;96182.19;;;13.22;98.72
8366;BME280;4220;42.502;24.188;2022-10-16T07:55:35;96199.91;;;13.47;97.60
8366;BME280;4220;42.502;24.188;2022-10-16T07:58:03;96202.09;;;13.57;94.58
8366;BME280;4220;42.502;24.188;2022-10-16T08:00:30;96202.47;;;13.67;93.20
8366;BME280;4220;42.502;24.188;2022-10-16T08:02:58;96202.81;;;13.77;92.06
8366;BME280;4220;42.502;24.188;2022-10-16T08:05:25;96203.13;;;13.94;91.51
8366;BME280;4220;42.502;24.188;2022-10-16T08:07:52;96206.31;;;14.09;90.84
8366;BME280;4220;42.502;24.188;2022-10-16T08:10:21;96193.56;;;14.11;90.79
8366;BME280;4220;42.502;24.188;2022-10-16T08:12:48;96196.31;;;14.29;90.78
8366;BME280;4220;42.502;24.188;2022-10-16T08:15:17;96198.28;;;14.40;90.41
8366;BME280;4220;42.502;24.188;2022-10-16T08:17:44;96184.94;;;14.40;89.40
8366;BME280;4220;42.502;24.188;2022-10-16T08:20:11;96205.44;;;14.46;88.18
8366;BME280;4220;42.502;24.188;2022-10-16T08:22:38;96198.47;;;14.14;89.16
8366;BME280;4220;42.502;24.188;2022-10-16T08:25:05;96194.44;;;14.05;89.86
8366;BME280;4220;42.502;24.188;2022-10-16T08:27:32;96188.81;;;14.13;90.62
8366;BME280;4220;42.502;24.188;2022-10-16T08:29:59;96199.56;;;14.37;89.42
8366;BME280;4220;42.502;24.188;2022-10-16T08:32:27;96194.00;;;14.64;88.74
8366;BME280;4220;42.502;24.188;2022-10-16T08:34:54;96198.44;;;14.70;87.13
8366;BME280;4220;42.502;24.188;2022-10-16T08:37:21;96188.75;;;14.75;87.17
8366;BME280;4220;42.502;24.188;2022-10-16T08:39:48;96197.19;;;14.72;85.38
8366;BME280;4220;42.502;24.188;2022-10-16T08:42:22;96193.19;;;14.63;85.91
8366;BME280;4220;42.502;24.188;2022-10-16T08:45:21;96191.00;;;14.78;86.39
8366;BME280;4220;42.502;24.188;2022-10-16T08:47:59;96193.06;;;14.94;85.79
8366;BME280;4220;42.502;24.188;2022-10-16T08:50:31;96172.28;;;14.96;84.92
8366;BME280;4220;42.502;24.188;2022-10-16T08:52:58;96197.09;;;15.22;84.59
8366;BME280;4220;42.502;24.188;2022-10-16T08:55:32;96193.06;;;15.31;83.91
8366;BME280;4220;42.502;24.188;2022-10-16T08:58:01;96211.34;;;15.34;84.05
8366;BME280;4220;42.502;24.188;2022-10-16T09:00:28;96206.28;;;15.44;83.39
8366;BME280;4220;42.502;24.188;2022-10-16T09:03:05;96209.13;;;15.67;81.87
8366;BME280;4220;42.502;24.188;2022-10-16T09:05:54;96202.69;;;15.86;81.20
8366;BME280;4220;42.502;24.188;2022-10-16T09:08:31;96203.63;;;15.92;79.99
8366;BME280;4220;42.502;24.188;2022-10-16T09:11:08;96202.38;;;15.94;80.16
8366;BME280;4220;42.502;24.188;2022-10-16T09:13:46;96168.25;;;15.90;78.75
8366;BME280;4220;42.502;24.188;2022-10-16T09:16:19;96203.75;;;16.26;79.66
8366;BME280;4220;42.502;24.188;2022-10-16T09:18:54;96208.56;;;16.48;78.70
8366;BME280;4220;42.502;24.188;2022-10-16T09:21:27;96209.75;;;16.52;78.36
8366;BME280;4220;42.502;24.188;2022-10-16T09:23:58;96204.19;;;16.65;79.13
8366;BME280;4220;42.502;24.188;2022-10-16T09:26:26;96189.13;;;16.64;76.77
8366;BME280;4220;42.502;24.188;2022-10-16T09:28:53;96198.00;;;16.64;76.80
8366;BME280;4220;42.502;24.188;2022-10-16T09:31:22;96190.44;;;16.73;76.39
8366;BME280;4220;42.502;24.188;2022-10-16T09:33:53;96192.06;;;16.74;76.18
8366;BME280;4220;42.502;24.188;2022-10-16T09:36:23;96147.75;;;16.36;77.03
8366;BME280;4220;42.502;24.188;2022-10-16T09:39:03;96189.03;;;16.82;76.80
8366;BME280;4220;42.502;24.188;2022-10-16T09:41:30;96187.72;;;17.08;75.91
8366;BME280;4220;42.502;24.188;2022-10-16T09:44:04;96182.84;;;17.05;75.49
8366;BME280;4220;42.502;24.188;2022-10-16T09:46:40;96182.84;;;17.16;75.51
8366;BME280;4220;42.502;24.188;2022-10-16T09:49:20;96187.94;;;17.29;74.95
8366;BME280;4220;42.502;24.188;2022-10-16T09:51:47;96182.56;;;17.41;74.72
8366;BME280;4220;42.502;24.188;2022-10-16T09:54:16;96174.59;;;17.57;73.75
8366;BME280;4220;42.502;24.188;2022-10-16T09:56:43;96177.22;;;17.81;73.39
8366;BME280;4220;42.502;24.188;2022-10-16T09:59:12;96165.22;;;18.00;72.39
8366;BME280;4220;42.502;24.188;2022-10-16T10:01:41;96160.50;;;18.07;72.44
8366;BME280;4220;42.502;24.188;2022-10-16T10:04:10;96166.31;;;18.32;71.96
8366;BME280;4220;42.502;24.188;2022-10-16T10:06:43;96175.22;;;18.49;70.92
8366;BME280;4220;42.502;24.188;2022-10-16T10:09:19;96170.97;;;18.53;70.26
8366;BME280;4220;42.502;24.188;2022-10-16T10:11:51;96167.84;;;18.28;71.33
8366;BME280;4220;42.502;24.188;2022-10-16T10:14:31;96169.81;;;18.33;71.20
8366;BME280;4220;42.502;24.188;2022-10-16T10:17:09;96161.41;;;18.46;70.56
8366;BME280;4220;42.502;24.188;2022-10-16T10:19:41;96163.94;;;18.36;70.15
8366;BME280;4220;42.502;24.188;2022-10-16T10:22:29;96160.47;;;18.35;70.64
8366;BME280;4220;42.502;24.188;2022-10-16T10:25:11;96170.16;;;18.53;70.46
8366;BME280;4220;42.502;24.188;2022-10-16T10:27:48;96161.53;;;18.84;69.40
8366;BME280;4220;42.502;24.188;2022-10-16T10:30:23;96163.81;;;19.14;68.17
8366;BME280;4220;42.502;24.188;2022-10-16T10:33:00;96121.34;;;18.94;67.36
8366;BME280;4220;42.502;24.188;2022-10-16T10:35:39;96156.69;;;19.24;68.55
8366;BME280;4220;42.502;24.188;2022-10-16T10:38:23;96144.84;;;19.42;67.70
8366;BME280;4220;42.502;24.188;2022-10-16T10:41:03;96143.00;;;19.26;67.32
8366;BME280;4220;42.502;24.188;2022-10-16T10:43:48;96141.31;;;18.81;68.84
8366;BME280;4220;42.502;24.188;2022-10-16T10:46:25;96139.63;;;18.97;68.52
8366;BME280;4220;42.502;24.188;2022-10-16T10:49:09;96126.81;;;18.82;69.35
8366;BME280;4220;42.502;24.188;2022-10-16T10:51:48;96131.66;;;19.02;68.94
8366;BME280;4220;42.502;24.188;2022-10-16T10:54:25;96064.81;;;19.11;68.14
8366;BME280;4220;42.502;24.188;2022-10-16T10:56:58;96125.47;;;19.93;66.03
8366;BME280;4220;42.502;24.188;2022-10-16T11:00:02;96122.38;;;20.33;65.01
8366;BME280;4220;42.502;24.188;2022-10-16T11:02:37;96129.53;;;20.54;63.05
8366;BME280;4220;42.502;24.188;2022-10-16T11:05:23;96122.53;;;20.21;64.08
8366;BME280;4220;42.502;24.188;2022-10-16T11:07:57;96118.03;;;20.32;64.96
8366;BME280;4220;42.502;24.188;2022-10-16T11:10:29;96118.03;;;20.64;64.59
8366;BME280;4220;42.502;24.188;2022-10-16T11:12:59;96111.66;;;20.80;63.56
8366;BME280;4220;42.502;24.188;2022-10-16T11:15:34;96114.50;;;21.00;63.33
8366;BME280;4220;42.502;24.188;2022-10-16T11:18:06;96094.06;;;21.14;62.33
8366;BME280;4220;42.502;24.188;2022-10-16T11:20:37;96113.31;;;21.38;62.01
8366;BME280;4220;42.502;24.188;2022-10-16T11:23:11;96110.94;;;21.46;62.08
8366;BME280;4220;42.502;24.188;2022-10-16T11:25:43;96115.94;;;21.90;60.76
8366;BME280;4220;42.502;24.188;2022-10-16T11:28:11;96101.69;;;22.25;58.37
8366;BME280;4220;42.502;24.188;2022-10-16T11:30:44;96107.09;;;22.35;58.16
8366;BME280;4220;42.502;24.188;2022-10-16T11:33:25;96118.97;;;22.29;57.03
8366;BME280;4220;42.502;24.188;2022-10-16T11:36:00;96115.47;;;22.33;57.13
8366;BME280;4220;42.502;24.188;2022-10-16T11:38:33;96113.03;;;22.52;56.23
8366;BME280;4220;42.502;24.188;2022-10-16T11:41:11;96115.47;;;22.68;55.95
8366;BME280;4220;42.502;24.188;2022-10-16T11:43:45;96111.94;;;22.78;55.99
8366;BME280;4220;42.502;24.188;2022-10-16T11:46:19;96119.16;;;23.13;54.94
8366;BME280;4220;42.502;24.188;2022-10-16T11:48:50;96118.91;;;23.19;53.98
8366;BME280;4220;42.502;24.188;2022-10-16T11:51:25;96116.38;;;23.48;54.27
8366;BME280;4220;42.502;24.188;2022-10-16T11:53:59;96113.88;;;23.62;54.39
8366;BME280;4220;42.502;24.188;2022-10-16T11:56:30;96111.88;;;23.82;53.93
8366;BME280;4220;42.502;24.188;2022-10-16T11:59:01;96106.63;;;23.96;52.76
8366;BME280;4220;42.502;24.188;2022-10-16T12:01:33;96100.00;;;24.22;52.39
8366;BME280;4220;42.502;24.188;2022-10-16T12:04:14;96110.66;;;24.09;52.04
8366;BME280;4220;42.502;24.188;2022-10-16T12:06:48;96074.69;;;23.44;52.85
8366;BME280;4220;42.502;24.188;2022-10-16T12:09:21;96108.44;;;23.67;53.13
8366;BME280;4220;42.502;24.188;2022-10-16T12:11:51;96111.94;;;23.72;52.87
8366;BME280;4220;42.502;24.188;2022-10-16T12:14:38;96110.19;;;23.91;52.35
8366;BME280;4220;42.502;24.188;2022-10-16T12:17:24;96118.25;;;24.01;51.98
8366;BME280;4220;42.502;24.188;2022-10-16T12:19:59;96074.59;;;24.03;51.72
8366;BME280;4220;42.502;24.188;2022-10-16T12:22:28;96114.88;;;24.25;51.59
8366;BME280;4220;42.502;24.188;2022-10-16T12:24:56;96122.81;;;24.50;51.44
8366;BME280;4220;42.502;24.188;2022-10-16T12:27:28;96113.22;;;24.29;51.07
8366;BME280;4220;42.502;24.188;2022-10-16T12:29:56;96121.50;;;24.42;51.09
8366;BME280;4220;42.502;24.188;2022-10-16T12:32:29;96126.16;;;24.42;50.57
8366;BME280;4220;42.502;24.188;2022-10-16T12:34:58;96129.78;;;24.61;49.71
8366;BME280;4220;42.502;24.188;2022-10-16T12:37:27;96120.59;;;24.91;48.99
8366;BME280;4220;42.502;24.188;2022-10-16T12:39:55;96129.31;;;25.11;48.19
8366;BME280;4220;42.502;24.188;2022-10-16T12:42:33;96120.53;;;25.19;47.75
8366;BME280;4220;42.502;24.188;2022-10-16T12:45:01;96124.28;;;25.23;48.30
8366;BME280;4220;42.502;24.188;2022-10-16T12:47:47;96122.81;;;25.12;48.66
8366;BME280;4220;42.502;24.188;2022-10-16T12:50:32;96125.28;;;24.80;48.59
8366;BME280;4220;42.502;24.188;2022-10-16T12:53:01;96116.50;;;24.93;48.96
8366;BME280;4220;42.502;24.188;2022-10-16T12:55:41;96105.94;;;24.87;48.84
8366;BME280;4220;42.502;24.188;2022-10-16T12:58:25;96122.13;;;24.97;49.48
8366;BME280;4220;42.502;24.188;2022-10-16T13:00:57;96135.69;;;25.25;48.05
8366;BME280;4220;42.502;24.188;2022-10-16T13:03:53;96129.97;;;25.03;48.40
8366;BME280;4220;42.502;24.188;2022-10-16T13:06:34;96129.91;;;24.80;49.19
8366;BME280;4220;42.502;24.188;2022-10-16T13:09:17;96129.75;;;24.95;48.60
8366;BME280;4220;42.502;24.188;2022-10-16T13:12:05;96132.03;;;25.11;47.85
8366;BME280;4220;42.502;24.188;2022-10-16T13:17:35;96120.31;;;25.40;46.60
8366;BME280;4220;42.502;24.188;2022-10-16T13:20:14;96131.06;;;25.26;46.75
8366;BME280;4220;42.502;24.188;2022-10-16T13:22:51;96129.91;;;25.32;47.44
8366;BME280;4220;42.502;24.188;2022-10-16T13:25:28;96125.44;;;25.46;47.13
8366;BME280;4220;42.502;24.188;2022-10-16T13:28:00;96135.00;;;25.39;47.79
8366;BME280;4220;42.502;24.188;2022-10-16T13:30:30;96126.63;;;25.35;48.03